EmailTwitter


Surface observations / France / LFPO (07149)

Regions: Quebec | Canada | USA | Europe | France | UK | Elsewhere
Station
Display
Info & Location for LFPO (07149) | Help decoding METAR

Weather Conditions observed on 2018/08/20 at 18:00 UTC at PARIS/ORLY, FR (LFPO)

Sky conditions: partly cloudy.

Temperature: 24.0 Celsius.

Dewpoint: 15.0 Celsius.

Relative Humidity: 57%

Humidex: 28.

Winds: Calm at 0 km/h or 0 knots.

Mean Sea level Pressure: 102.00 kilopascals.

Horizontal visibility: 6.21 statute miles or 9.94 kilometers.

Height of the Ceiling: 1402 metres ( 4600 feet ).

Coded METAR:

LFPO 201800Z 00000KT 9999 SCT039 BKN046 24/15 Q1020 NOSIG=